Home > Products > Valid Products > MTR

000
SAHW31 PHFO 170054
MTRITO
METAR PHTO 170053Z 02009KT 10SM FEW030 SCT070 SCT110 30/22 A2990 RMK
AO2 SLP122 T03000217 $




000
SAHW31 PHFO 170054
MTRITO
METAR PHTO 170053Z 02009KT 10SM FEW030 SCT070 SCT110 30/22 A2990 RMK
AO2 SLP122 T03000217 $





000
SAHW31 PHFO 162354
MTRITO
METAR PHTO 162353Z 04008KT 10SM FEW030 SCT110 SCT180 31/22 A2991 RMK
AO2 SLP127 T03060222 10311 20272 58016 $




000
SAHW31 PHFO 162354
MTRITO
METAR PHTO 162353Z 04008KT 10SM FEW030 SCT110 SCT180 31/22 A2991 RMK
AO2 SLP127 T03060222 10311 20272 58016 $





000
SAHW31 PHFO 162254
MTRITO
METAR PHTO 162253Z 02008KT 10SM FEW030 BKN065 BKN110 30/22 A2993 RMK
AO2 SLP133 T03000217 $




000
SAHW31 PHFO 162254
MTRITO
METAR PHTO 162253Z 02008KT 10SM FEW030 BKN065 BKN110 30/22 A2993 RMK
AO2 SLP133 T03000217 $





000
SAHW31 PHFO 162154
MTRITO
METAR PHTO 162153Z 02008KT 10SM FEW030 SCT048 BKN060 31/22 A2995 RMK
AO2 SLP140 T03060222 $




000
SAHW31 PHFO 162154
MTRITO
METAR PHTO 162153Z 02008KT 10SM FEW030 SCT048 BKN060 31/22 A2995 RMK
AO2 SLP140 T03060222 $





000
SAHW31 PHFO 162054
MTRITO
METAR PHTO 162053Z 03009KT 10SM FEW030 BKN060 29/21 A2996 RMK AO2
SLP143 T02940211 50000 $





000
SAHW31 PHFO 162054
MTRITO
METAR PHTO 162053Z 03009KT 10SM FEW030 BKN060 29/21 A2996 RMK AO2
SLP143 T02940211 50000 $




000
SAHW31 PHFO 161954
MTRITO
METAR PHTO 161953Z 01011KT 10SM FEW030 SCT048 BKN120 29/22 A2997 RMK
AO2 SLP149 T02940222 $




000
SAHW31 PHFO 161954
MTRITO
METAR PHTO 161953Z 01011KT 10SM FEW030 SCT048 BKN120 29/22 A2997 RMK
AO2 SLP149 T02940222 $





000
SAHW31 PHFO 161854
MTRITO
METAR PHTO 161853Z 01008KT 10SM BKN050 BKN100 28/21 A2996 RMK AO2
SLP145 T02830206





000
SAHW31 PHFO 161854
MTRITO
METAR PHTO 161853Z 01008KT 10SM BKN050 BKN100 28/21 A2996 RMK AO2
SLP145 T02830206




000
SAHW31 PHFO 161754
MTRITO
METAR PHTO 161753Z 33004KT 10SM SCT050 BKN100 27/20 A2996 RMK AO2
SLP144 T02720200 10272 20222 51010




000
SAHW31 PHFO 161754
MTRITO
METAR PHTO 161753Z 33004KT 10SM SCT050 BKN100 27/20 A2996 RMK AO2
SLP144 T02720200 10272 20222 51010





000
SAHW31 PHFO 161654
MTRITO
METAR PHTO 161653Z 22005KT 10SM OVC049 24/19 A2995 RMK AO2 SLP140
T02440189




000
SAHW31 PHFO 161554
MTRITO
METAR PHTO 161553Z 23005KT 10SM BKN050 23/18 A2994 RMK AO2 SLP138
T02280178




000
SAHW31 PHFO 161554
MTRITO
METAR PHTO 161553Z 23005KT 10SM BKN050 23/18 A2994 RMK AO2 SLP138
T02280178





000
SAHW31 PHFO 161454
MTRITO
METAR PHTO 161453Z 25005KT 10SM SCT045 22/18 A2993 RMK AO2 SLP134
T02220178 53000




000
SAHW31 PHFO 161454
MTRITO
METAR PHTO 161453Z 25005KT 10SM SCT045 22/18 A2993 RMK AO2 SLP134
T02220178 53000





000
SAHW31 PHFO 161354
MTRITO
METAR PHTO 161353Z 24006KT 10SM FEW030 22/19 A2992 RMK AO2 SLP129
T02220189





000
SAHW31 PHFO 161354
MTRITO
METAR PHTO 161353Z 24006KT 10SM FEW030 22/19 A2992 RMK AO2 SLP129
T02220189




000
SAHW31 PHFO 161254
MTRITO
METAR PHTO 161253Z 23004KT 10SM CLR 23/19 A2992 RMK AO2 SLP129
T02280194




000
SAHW31 PHFO 161254
MTRITO
METAR PHTO 161253Z 23004KT 10SM CLR 23/19 A2992 RMK AO2 SLP129
T02280194





000
SAHW31 PHFO 161154
MTRITO
METAR PHTO 161153Z 24004KT 10SM FEW030 23/20 A2993 RMK AO2 SLP133
T02280200 10272 20228 56008




000
SAHW31 PHFO 161154
MTRITO
METAR PHTO 161153Z 24004KT 10SM FEW030 23/20 A2993 RMK AO2 SLP133
T02280200 10272 20228 56008





000
SAHW31 PHFO 161054
MTRITO
METAR PHTO 161053Z 00000KT 10SM FEW030 23/20 A2994 RMK AO2 SLP136
T02330200




000
SAHW31 PHFO 161054
MTRITO
METAR PHTO 161053Z 00000KT 10SM FEW030 23/20 A2994 RMK AO2 SLP136
T02330200





000
SAHW31 PHFO 160955
MTRITO
METAR PHTO 160953Z AUTO 24003KT 10SM CLR 24/20 A2994 RMK AO2 SLP138
T02390200 403110217 TSNO




000
SAHW31 PHFO 160955
MTRITO
METAR PHTO 160953Z AUTO 24003KT 10SM CLR 24/20 A2994 RMK AO2 SLP138
T02390200 403110217 TSNO





000
SAHW31 PHFO 160854
MTRITO
METAR PHTO 160853Z AUTO 23004KT 10SM CLR 24/21 A2995 RMK AO2 SLP141
T02440211 50004 TSNO




000
SAHW31 PHFO 160854
MTRITO
METAR PHTO 160853Z AUTO 23004KT 10SM CLR 24/21 A2995 RMK AO2 SLP141
T02440211 50004 TSNO





000
SAHW31 PHFO 160754
MTRITO
METAR PHTO 160753Z 28005KT 10SM OVC055 26/22 A2996 RMK AO2 SLP143
T02610217





000
SAHW31 PHFO 160754
MTRITO
METAR PHTO 160753Z 28005KT 10SM OVC055 26/22 A2996 RMK AO2 SLP143
T02610217




000
SAHW31 PHFO 160654
MTRITO
METAR PHTO 160653Z 31004KT 10SM FEW021 OVC060 27/23 A2996 RMK AO2
SLP142 T02670228




000
SAHW31 PHFO 160654
MTRITO
METAR PHTO 160653Z 31004KT 10SM FEW021 OVC060 27/23 A2996 RMK AO2
SLP142 T02670228





000
SAHW31 PHFO 160554
MTRITO
METAR PHTO 160553Z 36006KT 10SM OVC055 27/22 A2994 RMK AO2 SLP137
T02720222 10306 20272 53019





000
SAHW31 PHFO 160554
MTRITO
METAR PHTO 160553Z 36006KT 10SM OVC055 27/22 A2994 RMK AO2 SLP137
T02720222 10306 20272 53019




000
SAHW31 PHFO 160454
MTRITO
METAR PHTO 160453Z 35006KT 10SM OVC049 27/22 A2992 RMK AO2 SLP130
T02720222




000
SAHW31 PHFO 160454
MTRITO
METAR PHTO 160453Z 35006KT 10SM OVC049 27/22 A2992 RMK AO2 SLP130
T02720222





000
SAHW31 PHFO 160354
MTRITO
METAR PHTO 160353Z 36010KT 10SM OVC049 28/22 A2990 RMK AO2 SLP123
T02780222




000
SAHW31 PHFO 160354
MTRITO
METAR PHTO 160353Z 36010KT 10SM OVC049 28/22 A2990 RMK AO2 SLP123
T02780222





000
SAHW31 PHFO 160254
MTRITO
METAR PHTO 160253Z 01009KT 10SM OVC045 29/23 A2988 RMK AO2 SLP118
T02890228 55002




000
SAHW31 PHFO 160254
MTRITO
METAR PHTO 160253Z 01009KT 10SM OVC045 29/23 A2988 RMK AO2 SLP118
T02890228 55002





000
SAHW31 PHFO 160154
MTRITO
METAR PHTO 160153Z 01010KT 10SM FEW030 SCT047 SCT120 30/23 A2987 RMK
AO2 SLP114 T03000228




000
SAHW31 PHFO 160154
MTRITO
METAR PHTO 160153Z 01010KT 10SM FEW030 SCT047 SCT120 30/23 A2987 RMK
AO2 SLP114 T03000228





000
SAHW31 PHFO 160054
MTRITO
METAR PHTO 160053Z 02012KT 10SM OVC047 29/23 A2988 RMK AO2 SLP117
T02940228




000
SAHW31 PHFO 160054
MTRITO
METAR PHTO 160053Z 02012KT 10SM OVC047 29/23 A2988 RMK AO2 SLP117
T02940228





000
SAHW31 PHFO 152354
MTRITO
METAR PHTO 152353Z 02011KT 10SM FEW030 FEW049 SCT120 30/23 A2989 RMK
AO2 SLP120 T03000228 10311 20267 58017





000
SAHW31 PHFO 152354
MTRITO
METAR PHTO 152353Z 02011KT 10SM FEW030 FEW049 SCT120 30/23 A2989 RMK
AO2 SLP120 T03000228 10311 20267 58017




000
SAHW31 PHFO 152254
MTRITO
METAR PHTO 152253Z 02008KT 10SM FEW030 SCT080 29/23 A2990 RMK AO2
SLP125 T02940228




000
SAHW31 PHFO 152254
MTRITO
METAR PHTO 152253Z 02008KT 10SM FEW030 SCT080 29/23 A2990 RMK AO2
SLP125 T02940228





000
SAHW31 PHFO 152154
MTRITO
METAR PHTO 152153Z 36010KT 10SM FEW030 SCT080 29/23 A2993 RMK AO2
SLP133 T02940228




000
SAHW31 PHFO 152054
MTRITO
METAR PHTO 152053Z 02008KT 10SM FEW030 29/21 A2994 RMK AO2 SLP137
T02940211 50002





000
SAHW31 PHFO 152054
MTRITO
METAR PHTO 152053Z 02008KT 10SM FEW030 29/21 A2994 RMK AO2 SLP137
T02940211 50002




000
SAHW31 PHFO 151954
MTRITO
METAR PHTO 151953Z 04007KT 10SM FEW030 SCT080 31/21 A2994 RMK AO2
SLP138 T03060211





000
SAHW31 PHFO 151954
MTRITO
METAR PHTO 151953Z 04007KT 10SM FEW030 SCT080 31/21 A2994 RMK AO2
SLP138 T03060211




000
SAHW31 PHFO 151854
MTRITO
METAR PHTO 151853Z 00000KT 10SM SCT030 29/20 A2995 RMK AO2 SLP139
T02940200




000
SAHW31 PHFO 151854
MTRITO
METAR PHTO 151853Z 00000KT 10SM SCT030 29/20 A2995 RMK AO2 SLP139
T02940200





000
SAHW31 PHFO 151754
MTRITO
METAR PHTO 151753Z 00000KT 10SM FEW030 FEW055 27/17 A2993 RMK AO2
SLP135 T02670172 10267 20217 51008





000
SAHW31 PHFO 151754
MTRITO
METAR PHTO 151753Z 00000KT 10SM FEW030 FEW055 27/17 A2993 RMK AO2
SLP135 T02670172 10267 20217 51008




000
SAHW31 PHFO 151654
MTRITO
METAR PHTO 151653Z 23005KT 10SM CLR 23/16 A2993 RMK AO2 SLP133
T02280161





000
SAHW31 PHFO 151654
MTRITO
METAR PHTO 151653Z 23005KT 10SM CLR 23/16 A2993 RMK AO2 SLP133
T02280161




000
SAHW31 PHFO 151554
MTRITO
METAR PHTO 151553Z 24006KT 10SM CLR 22/16 A2992 RMK AO2 SLP129
T02170161





000
SAHW31 PHFO 151554
MTRITO
METAR PHTO 151553Z 24006KT 10SM CLR 22/16 A2992 RMK AO2 SLP129
T02170161




000
SAHW31 PHFO 151454
MTRITO
METAR PHTO 151453Z 23006KT 10SM CLR 22/16 A2991 RMK AO2 SLP126
T02170161 55001





000
SAHW31 PHFO 151454
MTRITO
METAR PHTO 151453Z 23006KT 10SM CLR 22/16 A2991 RMK AO2 SLP126
T02170161 55001




000
SAHW31 PHFO 151354
MTRITO
METAR PHTO 151353Z 24006KT 10SM CLR 22/17 A2990 RMK AO2 SLP123
T02170167





000
SAHW31 PHFO 151354
MTRITO
METAR PHTO 151353Z 24006KT 10SM CLR 22/17 A2990 RMK AO2 SLP123
T02170167




000
SAHW31 PHFO 151254
MTRITO
METAR PHTO 151253Z 24006KT 10SM CLR 22/17 A2991 RMK AO2 SLP125
T02220172





000
SAHW31 PHFO 151254
MTRITO
METAR PHTO 151253Z 24006KT 10SM CLR 22/17 A2991 RMK AO2 SLP125
T02220172




000
SAHW31 PHFO 151154
MTRITO
METAR PHTO 151153Z 24005KT 10SM CLR 22/17 A2991 RMK AO2 SLP127
T02220172 10261 20222 56007





000
SAHW31 PHFO 151154
MTRITO
METAR PHTO 151153Z 24005KT 10SM CLR 22/17 A2991 RMK AO2 SLP127
T02220172 10261 20222 56007




000
SAHW31 PHFO 151054
MTRITO
METAR PHTO 151053Z 24006KT 10SM CLR 22/18 A2992 RMK AO2 SLP129
T02220178





000
SAHW31 PHFO 151054
MTRITO
METAR PHTO 151053Z 24006KT 10SM CLR 22/18 A2992 RMK AO2 SLP129
T02220178




000
SAHW31 PHFO 150954
MTRITO
METAR PHTO 150953Z AUTO 23005KT 10SM CLR 23/19 A2992 RMK AO2 SLP131
T02280194 403060211 TSNO




000
SAHW31 PHFO 150954
MTRITO
METAR PHTO 150953Z AUTO 23005KT 10SM CLR 23/19 A2992 RMK AO2 SLP131
T02280194 403060211 TSNO





000
SAHW31 PHFO 150854
MTRITO
METAR PHTO 150853Z AUTO 23005KT 10SM CLR 24/21 A2993 RMK AO2 SLP134
T02390211 50003 TSNO





000
SAHW31 PHFO 150854
MTRITO
METAR PHTO 150853Z AUTO 23005KT 10SM CLR 24/21 A2993 RMK AO2 SLP134
T02390211 50003 TSNO




000
SAHW31 PHFO 150810
MTRITO
SPECI PHTO 150809Z AUTO 23004KT 10SM FEW023 SCT029 24/22 A2994 RMK
AO2 T02440217 TSNO




000
SAHW31 PHFO 150810
MTRITO
SPECI PHTO 150809Z AUTO 23004KT 10SM FEW023 SCT029 24/22 A2994 RMK
AO2 T02440217 TSNO





000
SAHW31 PHFO 150803
MTRITO
SPECI PHTO 150802Z AUTO 23004KT 10SM FEW023 BKN029 24/22 A2994 RMK
AO2 T02440217 TSNO




000
SAHW31 PHFO 150803
MTRITO
SPECI PHTO 150802Z AUTO 23004KT 10SM FEW023 BKN029 24/22 A2994 RMK
AO2 T02440217 TSNO





000
SAHW31 PHFO 150754
MTRITO
METAR PHTO 150753Z 23003KT 10SM SCT023 SCT029 24/22 A2994 RMK AO2
SLP137 T02440222




000
SAHW31 PHFO 150754
MTRITO
METAR PHTO 150753Z 23003KT 10SM SCT023 SCT029 24/22 A2994 RMK AO2
SLP137 T02440222





000
SAHW31 PHFO 150654
MTRITO
METAR PHTO 150653Z 00000KT 10SM FEW031 26/22 A2994 RMK AO2 SLP137
T02560217




000
SAHW31 PHFO 150654
MTRITO
METAR PHTO 150653Z 00000KT 10SM FEW031 26/22 A2994 RMK AO2 SLP137
T02560217





000
SAHW31 PHFO 150630
MTRITO
SPECI PHTO 150629Z 00000KT 10SM FEW025 26/22 A2993 RMK AO2 T02560217




000
SAHW31 PHFO 150630
MTRITO
SPECI PHTO 150629Z 00000KT 10SM FEW025 26/22 A2993 RMK AO2 T02560217





000
SAHW31 PHFO 150554
MTRITO
METAR PHTO 150553Z 00000KT 10SM OVC024 26/22 A2992 RMK AO2 SLP131
60000 T02610222 10306 20250 53016





000
SAHW31 PHFO 150554
MTRITO
METAR PHTO 150553Z 00000KT 10SM OVC024 26/22 A2992 RMK AO2 SLP131
60000 T02610222 10306 20250 53016




000
SAHW31 PHFO 150517
MTRITO
SPECI PHTO 150516Z 00000KT 10SM BKN024 25/22 A2991 RMK AO2 T02500217
$




000
SAHW31 PHFO 150517
MTRITO
SPECI PHTO 150516Z 00000KT 10SM BKN024 25/22 A2991 RMK AO2 T02500217
$





000
SAHW31 PHFO 150454
MTRITO
METAR PHTO 150453Z 00000KT 10SM CLR 26/22 A2990 RMK AO2 RAB29E38
SLP124 P0000 T02560217 $




000
SAHW31 PHFO 150454
MTRITO
METAR PHTO 150453Z 00000KT 10SM CLR 26/22 A2990 RMK AO2 RAB29E38
SLP124 P0000 T02560217 $





000
SAHW31 PHFO 150354
MTRITO
METAR PHTO 150353Z 06005KT 10SM CLR 28/22 A2989 RMK AO2 SLP119
T02780217 $





000
SAHW31 PHFO 150354
MTRITO
METAR PHTO 150353Z 06005KT 10SM CLR 28/22 A2989 RMK AO2 SLP119
T02780217 $




000
SAHW31 PHFO 150254
MTRITO
METAR PHTO 150253Z 04004KT 10SM CLR 29/22 A2988 RMK AO2 SLP115
T02890222 55006 $





000
SAHW31 PHFO 150254
MTRITO
METAR PHTO 150253Z 04004KT 10SM CLR 29/22 A2988 RMK AO2 SLP115
T02890222 55006 $




000
SAHW31 PHFO 150156
MTRITO
METAR PHTO 150153Z COR 04007KT 10SM SCT030 30/22 A2987 RMK AO2
SLP114 T03000217 $





000
SAHW31 PHFO 150156
MTRITO
METAR PHTO 150153Z COR 04007KT 10SM SCT030 30/22 A2987 RMK AO2
SLP114 T03000217 $




000
SAHW31 PHFO 150154
MTRITO
METAR PHTO 150153Z 10SM SCT030 30/22 A2987 RMK AO2 SLP114 T03000217
$





000
SAHW31 PHFO 150154
MTRITO
METAR PHTO 150153Z 10SM SCT030 30/22 A2987 RMK AO2 SLP114 T03000217
$




000
SAHW31 PHFO 150054
MTRITO
METAR PHTO 150053Z 07006KT 10SM SCT030 29/22 A2987 RMK AO2 SLP115
T02940222





000
SAHW31 PHFO 142354
MTRITO
METAR PHTO 142353Z 05008KT 10SM SCT030 29/22 A2989 RMK AO2 SLP121
T02890217 10306 20261 56016




000
SAHW31 PHFO 142354
MTRITO
METAR PHTO 142353Z 05008KT 10SM SCT030 29/22 A2989 RMK AO2 SLP121
T02890217 10306 20261 56016





000
SAHW31 PHFO 142254
MTRITO
METAR PHTO 142253Z 04007KT 10SM SCT030 30/22 A2990 RMK AO2 SLP125
T03000222




000
SAHW31 PHFO 142254
MTRITO
METAR PHTO 142253Z 04007KT 10SM SCT030 30/22 A2990 RMK AO2 SLP125
T03000222





000
SAHW31 PHFO 142154
MTRITO
METAR PHTO 142153Z 06008KT 10SM FEW030 29/22 A2993 RMK AO2 SLP132
T02940217




000
SAHW31 PHFO 142154
MTRITO
METAR PHTO 142153Z 06008KT 10SM FEW030 29/22 A2993 RMK AO2 SLP132
T02940217





000
SAHW31 PHFO 142054
MTRITO
METAR PHTO 142053Z 05006KT 10SM FEW030 30/22 A2994 RMK AO2 SLP137
T03000217 58004




000
SAHW31 PHFO 142054
MTRITO
METAR PHTO 142053Z 05006KT 10SM FEW030 30/22 A2994 RMK AO2 SLP137
T03000217 58004





000
SAHW31 PHFO 141954
MTRITO
METAR PHTO 141953Z 04006KT 10SM FEW025 30/22 A2996 RMK AO2 SLP143
T03000217




000
SAHW31 PHFO 141954
MTRITO
METAR PHTO 141953Z 04006KT 10SM FEW025 30/22 A2996 RMK AO2 SLP143
T03000217





000
SAHW31 PHFO 141854
MTRITO
METAR PHTO 141853Z 02004KT 10SM FEW025 29/21 A2996 RMK AO2 SLP143
T02890211





000
SAHW31 PHFO 141854
MTRITO
METAR PHTO 141853Z 02004KT 10SM FEW025 29/21 A2996 RMK AO2 SLP143
T02890211




000
SAHW31 PHFO 141754
MTRITO
METAR PHTO 141753Z 23003KT 10SM CLR 26/19 A2995 RMK AO2 SLP142
T02610189 10261 20211 51006





000
SAHW31 PHFO 141754
MTRITO
METAR PHTO 141753Z 23003KT 10SM CLR 26/19 A2995 RMK AO2 SLP142
T02610189 10261 20211 51006




000
SAHW31 PHFO 141654
MTRITO
METAR PHTO 141653Z 24006KT 10SM FEW035 SCT045 22/18 A2995 RMK AO2
SLP140 T02220178




000
SAHW31 PHFO 141654
MTRITO
METAR PHTO 141653Z 24006KT 10SM FEW035 SCT045 22/18 A2995 RMK AO2
SLP140 T02220178





000
SAHW31 PHFO 141554
MTRITO
METAR PHTO 141553Z 23006KT 10SM SCT042 21/17 A2995 RMK AO2 SLP139
T02110167




000
SAHW31 PHFO 141554
MTRITO
METAR PHTO 141553Z 23006KT 10SM SCT042 21/17 A2995 RMK AO2 SLP139
T02110167





000
SAHW31 PHFO 141454
MTRITO
METAR PHTO 141453Z 23006KT 10SM SCT046 22/18 A2993 RMK AO2 SLP135
T02220178 58002




000
SAHW31 PHFO 141454
MTRITO
METAR PHTO 141453Z 23006KT 10SM SCT046 22/18 A2993 RMK AO2 SLP135
T02220178 58002





000
SAHW31 PHFO 141354
MTRITO
METAR PHTO 141353Z 24005KT 10SM OVC042 23/19 A2994 RMK AO2 SLP136
T02280194





000
SAHW31 PHFO 141354
MTRITO
METAR PHTO 141353Z 24005KT 10SM OVC042 23/19 A2994 RMK AO2 SLP136
T02280194




000
SAHW31 PHFO 141309
MTRITO
SPECI PHTO 141308Z 00000KT 10SM SCT020 BKN035 OVC060 23/20 A2994 RMK
AO2 T02280200





000
SAHW31 PHFO 141309
MTRITO
SPECI PHTO 141308Z 00000KT 10SM SCT020 BKN035 OVC060 23/20 A2994 RMK
AO2 T02280200




000
SAHW31 PHFO 141254
MTRITO
METAR PHTO 141253Z 10003KT 10SM BKN020 BKN033 BKN100 22/20 A2994 RMK
AO2 SLP138 T02220200




000
SAHW31 PHFO 141154
MTRITO
METAR PHTO 141153Z 22004KT 10SM CLR 23/19 A2994 RMK AO2 SLP137 70033
T02280189 10261 20228 57010





000
SAHW31 PHFO 141054
MTRITO
METAR PHTO 141053Z 23005KT 10SM CLR 23/19 A2995 RMK AO2 SLP140
T02280194





000
SAHW31 PHFO 141054
MTRITO
METAR PHTO 141053Z 23005KT 10SM CLR 23/19 A2995 RMK AO2 SLP140
T02280194




000
SAHW31 PHFO 140954
MTRITO
METAR PHTO 140953Z AUTO 22004KT 10SM FEW022 SCT028 OVC040 24/21
A2996 RMK AO2 SLP145 T02440206 403060211 TSNO





000
SAHW31 PHFO 140954
MTRITO
METAR PHTO 140953Z AUTO 22004KT 10SM FEW022 SCT028 OVC040 24/21
A2996 RMK AO2 SLP145 T02440206 403060211 TSNO




000
SAHW31 PHFO 140854
MTRITO
METAR PHTO 140853Z AUTO 00000KT 10SM FEW030 FEW041 24/21 A2997 RMK
AO2 SLP147 T02390211 51008 TSNO




000
SAHW31 PHFO 140854
MTRITO
METAR PHTO 140853Z AUTO 00000KT 10SM FEW030 FEW041 24/21 A2997 RMK
AO2 SLP147 T02390211 51008 TSNO





000
SAHW31 PHFO 140754
MTRITO
METAR PHTO 140753Z 24004KT 10SM FEW042 24/22 A2997 RMK AO2 SLP147
T02390217





000
SAHW31 PHFO 140754
MTRITO
METAR PHTO 140753Z 24004KT 10SM FEW042 24/22 A2997 RMK AO2 SLP147
T02390217




000
SAHW31 PHFO 140654
MTRITO
METAR PHTO 140653Z 27004KT 10SM FEW019 25/22 A2996 RMK AO2 SLP144
T02500222




000
SAHW31 PHFO 140654
MTRITO
METAR PHTO 140653Z 27004KT 10SM FEW019 25/22 A2996 RMK AO2 SLP144
T02500222





000
SAHW31 PHFO 140554
MTRITO
METAR PHTO 140553Z 32003KT 10SM OVC041 26/22 A2994 RMK AO2 SLP138
T02610222 10306 20261 53016




000
SAHW31 PHFO 140554
MTRITO
METAR PHTO 140553Z 32003KT 10SM OVC041 26/22 A2994 RMK AO2 SLP138
T02610222 10306 20261 53016





000
SAHW31 PHFO 140454
MTRITO
METAR PHTO 140453Z 01003KT 10SM FEW020 FEW040 26/22 A2993 RMK AO2
SLP132 T02610222





000
SAHW31 PHFO 140454
MTRITO
METAR PHTO 140453Z 01003KT 10SM FEW020 FEW040 26/22 A2993 RMK AO2
SLP132 T02610222




000
SAHW31 PHFO 140354
MTRITO
METAR PHTO 140353Z 04004KT 10SM FEW020 OVC042 27/22 A2991 RMK AO2
SLP127 T02720222





000
SAHW31 PHFO 140354
MTRITO
METAR PHTO 140353Z 04004KT 10SM FEW020 OVC042 27/22 A2991 RMK AO2
SLP127 T02720222




000
SAHW31 PHFO 140254
MTRITO
METAR PHTO 140253Z 06007KT 10SM BKN050 28/22 A2990 RMK AO2 SLP123
T02780217 53002





000
SAHW31 PHFO 140254
MTRITO
METAR PHTO 140253Z 06007KT 10SM BKN050 28/22 A2990 RMK AO2 SLP123
T02780217 53002




000
SAHW31 PHFO 140200
MTRITO
METAR PHTO 140153Z COR 05008KT 10SM FEW025 SCT048 BKN250 28/22 A2989
RMK AO2 SLP120 T02830222




000
SAHW31 PHFO 140154
MTRITO
METAR PHTO 140153Z 05008KT 10SM BKN048 28/22 A2989 RMK AO2 SLP120
T02830222




    US Dept of Commerce
    National Oceanic and Atmospheric Administration
    National Weather Service
    1325 East West Highway
    Silver Spring, MD 20910
    Page Author: NWS Internet Services Team
Disclaimer
Information Quality
Credits
Glossary
Privacy Policy
Freedom of Information Act (FOIA)
About Us
Career Opportunities